West Point, Georgia
Current Conditions -  °F | °C
As of 1:35 AM on Wednesday 26 Nov 2014 (Local Time) from KLGC Reporting Station
Broken Clouds Broken Clouds  
Wind Chill: 52°   Ceiling: 11000
Heat Index: 52°   Visibility: 10mi
Dew Point: 38°   Wind: 3mph
Humidity: 59%   Direction: 350°N
Pressure: 29.97"   Gusts: NA
Location:  32.88°N, 85.18°W
Report Text: KLGC 260635Z AUTO 35003KT 10SM BKN110 11/04 A2997 RMK AO2 T01130036
Loading
Personal Weather Stations






























Interactive Weather Map New forecast layout! Learn more

10-Day Weather Forecast

Advertisements
Track Severe Weather on mobile